Wendover, UT

6:18 PM MDT on August 27, 2015 (GMT -0600)
Wendover | | Change Station
CLOSE
Current Station
Airport
Location: Wendover,
Elevation: 4239 ft
Nearby Weather Stations

Elev 4239 ft 40.72 °N, 114.03 °W | Updated 3 minutes ago

Mostly Cloudy
Mostly Cloudy
88 °F
Feels Like 88 °F
N
8
Wind Variable Wind from South

Today
High -- | Low -- °F
--% Chance of Precip.
Yesterday
High -- | Low -- °F
Precip. -- in
6:58 AM 8:16 PM
Waxing Gibbous, 95% visible
Pressure 30.14 in
Visibility 10.0 miles
Clouds Clear
Dew Point 37 °F
Humidity 17%
Rainfall 0.00 in
Snow Depth Not available.
UV 2 out of 12
Pollen 8.20 out of 12
Air Quality Not available.
Flu Activity Not available.
METAR KENV 280015Z AUTO 17007KT 10SM CLR 31/03 A3014 RMK AO1 LTG DSNT N
Pressure 30.14 in
Visibility 10.0 miles
Clouds Clear
Dew Point 37 °F
Humidity 17%
Rainfall 0.00 in
Snow Depth Not available.
UV 2 out of 12
Pollen 8.20 out of 12
Air Quality Not available.
Flu Activity Not available.
METAR KENV 280015Z AUTO 17007KT 10SM CLR 31/03 A3014 RMK AO1 LTG DSNT N
Nowcast | as of 5:49 PM MDT on August 27, 2015

Scattered showers and thunderstorms will continue to Blossom into early evening and move southeast over portions of northern Utah and southwest Wyoming. The strongest storms at 545 PM were moving across Logan Canyon toward Rich County...and in Box Elder County north of Lucin. The strongest activity may produce moderate to heavy rain...small hail...strong gusty winds and dangerous lightning.

×

10-Day Weather Forecast

×

Almanac

Astronomy

Aug. 27, 2015 Rise Set
Actual Time
Civil Twilight
Nautical Twilight
Astronomical Twilight
Moon
Length of Visible Light
Length of Day
Tomorrow will be .
, % of the Moon is Illuminated

Today's Extremes

State Highs State Lows

Community

WunderPhotos

Upload Photos

1,850,272 photos uploaded!

WunderBlogs® & News

Nearby

Air Quality

  Air Quality AQ Index Pollutant
Not available.

Snow Depth

Station Depth Elevation

Earthquake Activity

City Distance Mag. Time & Date
Minimum magnitude displayed is 2.5.

Coastal Water Temperatures

Place Temperature

Stations

Nearby Weather Stations

Station Location Temp. Windchill Dew Point Humidity Wind Precip. Elev Updated Type